sensor_id;sensor_type;location;lat;lon;timestamp;pressure;altitude;pressure_sealevel;temperature;humidity
33496;BME280;19836;55.812;37.560;2022-08-24T06:07:31;100862.78;;;27.24;39.54
33496;BME280;19836;55.812;37.560;2022-08-24T06:09:59;100865.03;;;27.30;39.75
33496;BME280;19836;55.812;37.560;2022-08-24T06:12:25;100862.53;;;27.38;39.47
33496;BME280;19836;55.812;37.560;2022-08-24T06:14:51;100849.63;;;27.50;39.28
33496;BME280;19836;55.812;37.560;2022-08-24T06:17:23;100856.13;;;27.60;38.98
33496;BME280;19836;55.812;37.560;2022-08-24T06:19:49;100861.13;;;27.66;38.21
33496;BME280;19836;55.812;37.560;2022-08-24T06:22:16;100853.59;;;27.68;37.57
33496;BME280;19836;55.812;37.560;2022-08-24T06:24:43;100853.38;;;27.71;37.75
33496;BME280;19836;55.812;37.560;2022-08-24T06:27:33;100856.25;;;27.80;37.37
33496;BME280;19836;55.812;37.560;2022-08-24T06:30:03;100855.63;;;27.88;36.89
33496;BME280;19836;55.812;37.560;2022-08-24T06:32:41;100850.59;;;27.93;36.54
33496;BME280;19836;55.812;37.560;2022-08-24T06:35:11;100850.22;;;27.97;36.49
33496;BME280;19836;55.812;37.560;2022-08-24T06:37:37;100859.84;;;28.03;36.50
33496;BME280;19836;55.812;37.560;2022-08-24T06:40:04;100862.94;;;28.09;36.41
33496;BME280;19836;55.812;37.560;2022-08-24T06:42:33;100852.41;;;28.14;36.08
33496;BME280;19836;55.812;37.560;2022-08-24T06:44:58;100851.41;;;28.15;35.58
33496;BME280;19836;55.812;37.560;2022-08-24T06:47:26;100861.16;;;28.19;35.83
33496;BME280;19836;55.812;37.560;2022-08-24T06:49:58;100856.88;;;28.26;35.79
33496;BME280;19836;55.812;37.560;2022-08-24T06:52:26;100859.13;;;28.32;35.79
33496;BME280;19836;55.812;37.560;2022-08-24T06:54:56;100862.13;;;28.40;35.60
33496;BME280;19836;55.812;37.560;2022-08-24T06:57:22;100865.09;;;28.48;35.11
33496;BME280;19836;55.812;37.560;2022-08-24T06:59:48;100858.03;;;28.55;34.76
33496;BME280;19836;55.812;37.560;2022-08-24T07:02:14;100861.56;;;28.57;34.33
33496;BME280;19836;55.812;37.560;2022-08-24T07:04:44;100863.31;;;28.58;33.99
33496;BME280;19836;55.812;37.560;2022-08-24T07:07:29;100855.75;;;28.60;33.65
33496;BME280;19836;55.812;37.560;2022-08-24T07:09:55;100865.41;;;28.66;33.44
33496;BME280;19836;55.812;37.560;2022-08-24T07:12:20;100863.38;;;28.68;33.20
33496;BME280;19836;55.812;37.560;2022-08-24T07:14:50;100859.22;;;28.73;33.12
33496;BME280;19836;55.812;37.560;2022-08-24T07:17:16;100859.81;;;28.77;33.03
33496;BME280;19836;55.812;37.560;2022-08-24T07:19:44;100855.50;;;28.84;32.67
33496;BME280;19836;55.812;37.560;2022-08-24T07:22:22;100850.31;;;28.90;32.58
33496;BME280;19836;55.812;37.560;2022-08-24T07:24:48;100849.94;;;28.95;32.62
33496;BME280;19836;55.812;37.560;2022-08-24T07:27:14;100852.91;;;29.03;32.69
33496;BME280;19836;55.812;37.560;2022-08-24T07:29:40;100847.72;;;29.09;32.46
33496;BME280;19836;55.812;37.560;2022-08-24T07:32:07;100852.69;;;29.15;32.30
33496;BME280;19836;55.812;37.560;2022-08-24T07:34:37;100848.50;;;29.21;31.42
33496;BME280;19836;55.812;37.560;2022-08-24T07:37:05;100855.06;;;29.20;30.52
33496;BME280;19836;55.812;37.560;2022-08-24T07:39:35;100856.78;;;29.21;29.97
33496;BME280;19836;55.812;37.560;2022-08-24T07:42:01;100853.91;;;29.22;30.25
33496;BME280;19836;55.812;37.560;2022-08-24T07:44:27;100845.19;;;29.27;30.11
33496;BME280;19836;55.812;37.560;2022-08-24T07:46:54;100849.31;;;29.32;30.46
33496;BME280;19836;55.812;37.560;2022-08-24T07:49:20;100842.91;;;29.41;30.37
33496;BME280;19836;55.812;37.560;2022-08-24T07:51:47;100836.09;;;29.45;30.51
33496;BME280;19836;55.812;37.560;2022-08-24T07:54:14;100839.47;;;29.49;30.32
33496;BME280;19836;55.812;37.560;2022-08-24T07:56:42;100839.00;;;29.64;29.87
33496;BME280;19836;55.812;37.560;2022-08-24T07:59:08;100844.84;;;29.80;29.52
33496;BME280;19836;55.812;37.560;2022-08-24T08:01:35;100843.88;;;30.00;29.51
33496;BME280;19836;55.812;37.560;2022-08-24T08:04:02;100837.63;;;30.08;29.41
33496;BME280;19836;55.812;37.560;2022-08-24T08:06:28;100834.50;;;30.12;29.23
33496;BME280;19836;55.812;37.560;2022-08-24T08:08:59;100833.47;;;30.13;29.07
33496;BME280;19836;55.812;37.560;2022-08-24T08:11:24;100839.13;;;30.21;29.00
33496;BME280;19836;55.812;37.560;2022-08-24T08:13:51;100838.28;;;30.30;28.67
33496;BME280;19836;55.812;37.560;2022-08-24T08:16:19;100837.41;;;30.39;28.53
33496;BME280;19836;55.812;37.560;2022-08-24T08:18:46;100835.34;;;30.41;28.25
33496;BME280;19836;55.812;37.560;2022-08-24T08:21:12;100831.59;;;30.42;27.98
33496;BME280;19836;55.812;37.560;2022-08-24T08:23:57;100838.88;;;30.43;28.36
33496;BME280;19836;55.812;37.560;2022-08-24T08:26:48;100835.50;;;30.49;28.36
33496;BME280;19836;55.812;37.560;2022-08-24T08:29:22;100835.81;;;30.56;28.31
33496;BME280;19836;55.812;37.560;2022-08-24T08:31:50;100822.81;;;30.56;28.00
33496;BME280;19836;55.812;37.560;2022-08-24T08:34:17;100831.88;;;30.58;28.11
33496;BME280;19836;55.812;37.560;2022-08-24T08:36:43;100831.88;;;30.58;27.83
33496;BME280;19836;55.812;37.560;2022-08-24T08:39:13;100827.19;;;30.59;27.95
33496;BME280;19836;55.812;37.560;2022-08-24T08:55:59;100815.81;;;30.90;26.55
33496;BME280;19836;55.812;37.560;2022-08-24T09:10:56;100803.97;;;32.43;25.36
33496;BME280;19836;55.812;37.560;2022-08-24T09:13:47;100813.00;;;35.03;22.57
33496;BME280;19836;55.812;37.560;2022-08-24T09:22:12;100807.81;;;37.22;19.12
33496;BME280;19836;55.812;37.560;2022-08-24T09:25:06;100811.50;;;38.30;18.30
33496;BME280;19836;55.812;37.560;2022-08-24T09:28:26;100804.50;;;39.59;17.68
33496;BME280;19836;55.812;37.560;2022-08-24T10:00:10;100815.97;;;46.48;12.05
33496;BME280;19836;55.812;37.560;2022-08-24T10:02:51;100809.50;;;46.25;11.37
33496;BME280;19836;55.812;37.560;2022-08-24T10:05:32;100807.75;;;45.84;11.28
33496;BME280;19836;55.812;37.560;2022-08-24T10:08:40;100803.50;;;46.10;11.13
33496;BME280;19836;55.812;37.560;2022-08-24T10:16:54;100802.00;;;46.19;10.92
33496;BME280;19836;55.812;37.560;2022-08-24T10:19:52;100796.09;;;46.20;11.04
33496;BME280;19836;55.812;37.560;2022-08-24T10:25:39;100799.47;;;46.62;10.85
33496;BME280;19836;55.812;37.560;2022-08-24T10:31:13;100796.81;;;47.49;10.37
33496;BME280;19836;55.812;37.560;2022-08-24T10:37:01;100796.63;;;47.72;10.02
33496;BME280;19836;55.812;37.560;2022-08-24T10:40:02;100789.94;;;48.21;9.89
33496;BME280;19836;55.812;37.560;2022-08-24T10:50:55;100780.69;;;49.15;9.27
33496;BME280;19836;55.812;37.560;2022-08-24T10:53:32;100781.06;;;49.19;9.08
33496;BME280;19836;55.812;37.560;2022-08-24T10:56:13;100781.28;;;48.86;8.87
33496;BME280;19836;55.812;37.560;2022-08-24T10:58:47;100784.53;;;48.46;8.78
33496;BME280;19836;55.812;37.560;2022-08-24T11:06:26;100770.50;;;48.61;9.02
33496;BME280;19836;55.812;37.560;2022-08-24T11:08:56;100783.97;;;48.97;8.86
33496;BME280;19836;55.812;37.560;2022-08-24T11:11:36;100773.56;;;49.49;8.74
33496;BME280;19836;55.812;37.560;2022-08-24T11:14:04;100781.94;;;49.61;8.41
33496;BME280;19836;55.812;37.560;2022-08-24T11:16:40;100777.50;;;49.43;8.46
33496;BME280;19836;55.812;37.560;2022-08-24T11:19:12;100774.38;;;49.45;8.50
33496;BME280;19836;55.812;37.560;2022-08-24T11:21:46;100777.09;;;49.61;8.70
33496;BME280;19836;55.812;37.560;2022-08-24T11:32:39;100754.56;;;49.23;8.78
33496;BME280;19836;55.812;37.560;2022-08-24T11:35:15;100754.88;;;49.27;8.40
33496;BME280;19836;55.812;37.560;2022-08-24T11:37:42;100756.84;;;49.21;8.65
33496;BME280;19836;55.812;37.560;2022-08-24T11:40:08;100747.00;;;49.07;8.40
33496;BME280;19836;55.812;37.560;2022-08-24T11:51:04;100751.50;;;50.48;8.19
33496;BME280;19836;55.812;37.560;2022-08-24T11:56:24;100736.38;;;48.66;8.28
33496;BME280;19836;55.812;37.560;2022-08-24T11:59:00;100736.34;;;48.13;8.24
33496;BME280;19836;55.812;37.560;2022-08-24T12:01:35;100734.63;;;47.91;8.64
33496;BME280;19836;55.812;37.560;2022-08-24T12:12:26;100717.09;;;48.78;8.46
33496;BME280;19836;55.812;37.560;2022-08-24T12:15:11;100715.00;;;49.32;8.37
33496;BME280;19836;55.812;37.560;2022-08-24T12:18:17;100719.50;;;49.64;8.17
33496;BME280;19836;55.812;37.560;2022-08-24T12:20:47;100732.63;;;49.24;8.32
33496;BME280;19836;55.812;37.560;2022-08-24T12:23:35;100721.75;;;48.84;8.43
33496;BME280;19836;55.812;37.560;2022-08-24T12:26:29;100725.72;;;48.57;8.53
33496;BME280;19836;55.812;37.560;2022-08-24T12:34:19;100712.28;;;49.15;8.68
33496;BME280;19836;55.812;37.560;2022-08-24T12:37:00;100707.69;;;47.55;8.84
33496;BME280;19836;55.812;37.560;2022-08-24T12:39:45;100719.13;;;47.60;9.03
33496;BME280;19836;55.812;37.560;2022-08-24T12:42:24;100716.78;;;47.95;8.72
33496;BME280;19836;55.812;37.560;2022-08-24T12:44:59;100719.22;;;46.78;9.14
33496;BME280;19836;55.812;37.560;2022-08-24T12:50:21;100700.59;;;44.89;9.90
33496;BME280;19836;55.812;37.560;2022-08-24T13:01:18;100697.50;;;43.79;10.48
33496;BME280;19836;55.812;37.560;2022-08-24T13:03:47;100690.88;;;43.13;11.10
33496;BME280;19836;55.812;37.560;2022-08-24T13:06:25;100694.78;;;43.12;11.34
33496;BME280;19836;55.812;37.560;2022-08-24T13:09:07;100686.63;;;43.04;11.38
33496;BME280;19836;55.812;37.560;2022-08-24T13:11:35;100687.97;;;41.71;11.97
33496;BME280;19836;55.812;37.560;2022-08-24T13:19:45;100674.75;;;40.36;13.59
33496;BME280;19836;55.812;37.560;2022-08-24T13:22:59;100670.41;;;40.21;13.23
33496;BME280;19836;55.812;37.560;2022-08-24T13:33:59;100668.75;;;43.82;11.77
33496;BME280;19836;55.812;37.560;2022-08-24T13:59:03;100649.78;;;39.81;13.64
33496;BME280;19836;55.812;37.560;2022-08-24T14:15:31;100657.41;;;36.95;16.56
33496;BME280;19836;55.812;37.560;2022-08-24T14:18:12;100644.84;;;36.62;16.50
33496;BME280;19836;55.812;37.560;2022-08-24T14:21:02;100648.19;;;36.43;17.12
33496;BME280;19836;55.812;37.560;2022-08-24T14:40:19;100640.78;;;34.91;17.77
33496;BME280;19836;55.812;37.560;2022-08-24T15:06:03;100623.81;;;33.82;18.52
33496;BME280;19836;55.812;37.560;2022-08-24T15:08:34;100625.84;;;33.72;18.44
33496;BME280;19836;55.812;37.560;2022-08-24T15:11:16;100630.72;;;33.62;18.28
33496;BME280;19836;55.812;37.560;2022-08-24T15:13:56;100628.94;;;33.53;18.70
33496;BME280;19836;55.812;37.560;2022-08-24T15:16:47;100627.50;;;33.33;18.74
33496;BME280;19836;55.812;37.560;2022-08-24T15:19:20;100613.22;;;33.20;18.79
33496;BME280;19836;55.812;37.560;2022-08-24T15:22:02;100615.44;;;33.08;19.05
33496;BME280;19836;55.812;37.560;2022-08-24T15:24:48;100626.00;;;33.05;18.99
33496;BME280;19836;55.812;37.560;2022-08-24T15:27:27;100620.78;;;32.94;19.05
33496;BME280;19836;55.812;37.560;2022-08-24T15:30:02;100619.16;;;32.83;19.11
33496;BME280;19836;55.812;37.560;2022-08-24T15:35:32;100624.38;;;32.61;19.61
33496;BME280;19836;55.812;37.560;2022-08-24T15:38:29;100617.38;;;32.49;19.54
33496;BME280;19836;55.812;37.560;2022-08-24T15:41:11;100622.88;;;32.41;19.63
33496;BME280;19836;55.812;37.560;2022-08-24T15:46:10;100618.53;;;32.21;19.90
33496;BME280;19836;55.812;37.560;2022-08-24T15:48:39;100616.06;;;32.18;20.23
33496;BME280;19836;55.812;37.560;2022-08-24T15:51:07;100607.53;;;32.11;20.33
33496;BME280;19836;55.812;37.560;2022-08-24T15:53:39;100617.38;;;32.06;20.44
33496;BME280;19836;55.812;37.560;2022-08-24T15:56:25;100618.47;;;31.95;20.96
33496;BME280;19836;55.812;37.560;2022-08-24T15:58:52;100617.91;;;31.84;21.10
33496;BME280;19836;55.812;37.560;2022-08-24T16:01:27;100620.00;;;31.72;21.53
33496;BME280;19836;55.812;37.560;2022-08-24T16:06:59;100624.41;;;31.48;22.23
33496;BME280;19836;55.812;37.560;2022-08-24T16:12:13;100624.59;;;31.19;22.77
33496;BME280;19836;55.812;37.560;2022-08-24T16:14:49;100622.19;;;31.06;22.82
33496;BME280;19836;55.812;37.560;2022-08-24T16:17:36;100625.47;;;30.92;23.49
33496;BME280;19836;55.812;37.560;2022-08-24T16:20:07;100627.00;;;30.77;23.84
33496;BME280;19836;55.812;37.560;2022-08-24T16:22:38;100628.19;;;30.65;23.88
33496;BME280;19836;55.812;37.560;2022-08-24T16:25:32;100625.63;;;30.54;24.47
33496;BME280;19836;55.812;37.560;2022-08-24T16:33:09;100625.16;;;30.03;24.90
33496;BME280;19836;55.812;37.560;2022-08-24T16:35:35;100624.59;;;29.90;25.16
33496;BME280;19836;55.812;37.560;2022-08-24T16:38:01;100627.50;;;29.79;25.52
33496;BME280;19836;55.812;37.560;2022-08-24T16:40:29;100628.69;;;29.67;25.66
33496;BME280;19836;55.812;37.560;2022-08-24T16:42:58;100634.06;;;29.59;25.62
33496;BME280;19836;55.812;37.560;2022-08-24T16:45:24;100632.25;;;29.49;26.13
33496;BME280;19836;55.812;37.560;2022-08-24T16:47:49;100631.25;;;29.40;26.45
33496;BME280;19836;55.812;37.560;2022-08-24T16:50:17;100627.47;;;29.32;26.45
33496;BME280;19836;55.812;37.560;2022-08-24T16:52:44;100639.53;;;29.31;26.48
33496;BME280;19836;55.812;37.560;2022-08-24T16:55:10;100637.91;;;29.28;26.43
33496;BME280;19836;55.812;37.560;2022-08-24T16:57:36;100629.50;;;29.30;26.48
33496;BME280;19836;55.812;37.560;2022-08-24T17:00:09;100636.44;;;29.24;26.48
33496;BME280;19836;55.812;37.560;2022-08-24T17:02:37;100630.75;;;29.16;26.78
33496;BME280;19836;55.812;37.560;2022-08-24T17:05:03;100636.28;;;29.07;26.93
33496;BME280;19836;55.812;37.560;2022-08-24T17:07:30;100633.31;;;28.99;27.43
33496;BME280;19836;55.812;37.560;2022-08-24T17:09:57;100635.22;;;28.98;27.39
33496;BME280;19836;55.812;37.560;2022-08-24T17:12:25;100633.72;;;28.94;27.43
33496;BME280;19836;55.812;37.560;2022-08-24T17:14:51;100640.22;;;28.84;27.68
33496;BME280;19836;55.812;37.560;2022-08-24T17:17:19;100643.22;;;28.71;28.10
33496;BME280;19836;55.812;37.560;2022-08-24T17:19:51;100640.56;;;28.60;28.41
33496;BME280;19836;55.812;37.560;2022-08-24T17:22:19;100642.13;;;28.53;28.83
33496;BME280;19836;55.812;37.560;2022-08-24T17:24:45;100639.94;;;28.47;28.96
33496;BME280;19836;55.812;37.560;2022-08-24T17:27:12;100635.84;;;28.42;28.89
33496;BME280;19836;55.812;37.560;2022-08-24T17:29:40;100641.88;;;28.36;29.08
33496;BME280;19836;55.812;37.560;2022-08-24T17:32:06;100641.53;;;28.29;29.08
33496;BME280;19836;55.812;37.560;2022-08-24T17:34:32;100640.59;;;28.19;29.29
33496;BME280;19836;55.812;37.560;2022-08-24T17:36:58;100645.66;;;28.14;29.69
33496;BME280;19836;55.812;37.560;2022-08-24T17:39:24;100641.69;;;28.07;29.83
33496;BME280;19836;55.812;37.560;2022-08-24T17:41:52;100649.50;;;28.02;30.11
33496;BME280;19836;55.812;37.560;2022-08-24T17:44:21;100641.91;;;27.95;30.28
33496;BME280;19836;55.812;37.560;2022-08-24T17:46:50;100637.78;;;27.89;30.49
33496;BME280;19836;55.812;37.560;2022-08-24T17:49:18;100642.81;;;27.84;30.61
33496;BME280;19836;55.812;37.560;2022-08-24T17:51:44;100644.34;;;27.77;31.02
33496;BME280;19836;55.812;37.560;2022-08-24T17:54:11;100646.63;;;27.72;31.09
33496;BME280;19836;55.812;37.560;2022-08-24T17:56:37;100642.78;;;27.64;31.32
33496;BME280;19836;55.812;37.560;2022-08-24T17:59:08;100648.06;;;27.56;31.41
33496;BME280;19836;55.812;37.560;2022-08-24T18:01:55;100655.97;;;27.49;31.33
33496;BME280;19836;55.812;37.560;2022-08-24T18:04:22;100648.97;;;27.45;31.61
33496;BME280;19836;55.812;37.560;2022-08-24T18:06:55;100655.91;;;27.40;31.81
33496;BME280;19836;55.812;37.560;2022-08-24T18:09:29;100660.31;;;27.31;31.96
33496;BME280;19836;55.812;37.560;2022-08-24T18:11:55;100654.56;;;27.23;32.12
33496;BME280;19836;55.812;37.560;2022-08-24T18:14:21;100656.91;;;27.17;32.43
33496;BME280;19836;55.812;37.560;2022-08-24T18:16:47;100661.31;;;27.08;32.67
33496;BME280;19836;55.812;37.560;2022-08-24T18:19:13;100659.31;;;26.99;33.09
33496;BME280;19836;55.812;37.560;2022-08-24T18:21:40;100649.84;;;26.92;33.11
33496;BME280;19836;55.812;37.560;2022-08-24T18:24:06;100643.06;;;26.85;33.40
33496;BME280;19836;55.812;37.560;2022-08-24T18:26:32;100649.09;;;26.79;33.69
33496;BME280;19836;55.812;37.560;2022-08-24T18:29:02;100644.09;;;26.73;33.59
33496;BME280;19836;55.812;37.560;2022-08-24T18:31:32;100645.47;;;26.68;33.80
33496;BME280;19836;55.812;37.560;2022-08-24T18:33:58;100648.84;;;26.60;34.25
33496;BME280;19836;55.812;37.560;2022-08-24T18:36:24;100647.44;;;26.55;34.24
33496;BME280;19836;55.812;37.560;2022-08-24T18:38:50;100642.47;;;26.49;34.26
33496;BME280;19836;55.812;37.560;2022-08-24T18:41:17;100646.56;;;26.43;34.42
33496;BME280;19836;55.812;37.560;2022-08-24T18:43:43;100643.19;;;26.40;34.48
33496;BME280;19836;55.812;37.560;2022-08-24T18:46:09;100641.81;;;26.34;34.73
33496;BME280;19836;55.812;37.560;2022-08-24T18:48:34;100642.31;;;26.28;34.78
33496;BME280;19836;55.812;37.560;2022-08-24T18:51:01;100642.91;;;26.21;35.23
33496;BME280;19836;55.812;37.560;2022-08-24T18:53:27;100638.78;;;26.15;35.11
33496;BME280;19836;55.812;37.560;2022-08-24T18:55:53;100645.78;;;26.08;35.39
33496;BME280;19836;55.812;37.560;2022-08-24T18:58:19;100639.88;;;26.02;35.33
33496;BME280;19836;55.812;37.560;2022-08-24T19:00:46;100646.59;;;25.98;35.77
33496;BME280;19836;55.812;37.560;2022-08-24T19:03:15;100649.84;;;25.92;36.06
33496;BME280;19836;55.812;37.560;2022-08-24T19:05:42;100652.94;;;25.87;36.29
33496;BME280;19836;55.812;37.560;2022-08-24T19:08:08;100642.19;;;25.84;36.06
33496;BME280;19836;55.812;37.560;2022-08-24T19:10:35;100649.91;;;25.79;36.29
33496;BME280;19836;55.812;37.560;2022-08-24T19:13:07;100653.13;;;25.73;36.63
33496;BME280;19836;55.812;37.560;2022-08-24T19:15:34;100648.97;;;25.68;36.57
33496;BME280;19836;55.812;37.560;2022-08-24T19:18:00;100643.84;;;25.63;36.86
33496;BME280;19836;55.812;37.560;2022-08-24T19:20:26;100654.22;;;25.60;36.92
33496;BME280;19836;55.812;37.560;2022-08-24T19:22:52;100650.84;;;25.56;37.02
33496;BME280;19836;55.812;37.560;2022-08-24T19:25:25;100649.19;;;25.54;36.99
33496;BME280;19836;55.812;37.560;2022-08-24T19:27:52;100649.53;;;25.49;37.02
33496;BME280;19836;55.812;37.560;2022-08-24T19:30:20;100652.53;;;25.46;37.28
33496;BME280;19836;55.812;37.560;2022-08-24T19:32:46;100652.75;;;25.43;37.36
33496;BME280;19836;55.812;37.560;2022-08-24T19:35:13;100654.88;;;25.40;37.44
33496;BME280;19836;55.812;37.560;2022-08-24T19:37:40;100656.19;;;25.34;37.31
33496;BME280;19836;55.812;37.560;2022-08-24T19:40:06;100649.31;;;25.29;37.56
33496;BME280;19836;55.812;37.560;2022-08-24T19:42:34;100655.91;;;25.26;37.86
33496;BME280;19836;55.812;37.560;2022-08-24T19:45:00;100644.28;;;25.23;37.78
33496;BME280;19836;55.812;37.560;2022-08-24T19:47:45;100653.63;;;25.20;37.80
33496;BME280;19836;55.812;37.560;2022-08-24T19:50:10;100654.72;;;25.18;37.82
33496;BME280;19836;55.812;37.560;2022-08-24T19:52:39;100658.56;;;25.15;37.94
33496;BME280;19836;55.812;37.560;2022-08-24T19:55:06;100660.78;;;25.10;38.11
33496;BME280;19836;55.812;37.560;2022-08-24T19:57:40;100666.50;;;25.07;38.18
33496;BME280;19836;55.812;37.560;2022-08-24T20:02:42;100659.84;;;24.99;38.45
33496;BME280;19836;55.812;37.560;2022-08-24T20:05:08;100660.94;;;24.96;38.62
33496;BME280;19836;55.812;37.560;2022-08-24T20:07:34;100660.41;;;24.91;38.77
33496;BME280;19836;55.812;37.560;2022-08-24T20:10:00;100655.13;;;24.88;38.80
33496;BME280;19836;55.812;37.560;2022-08-24T20:12:26;100661.81;;;24.84;38.94
33496;BME280;19836;55.812;37.560;2022-08-24T20:14:52;100665.66;;;24.82;38.92
33496;BME280;19836;55.812;37.560;2022-08-24T20:17:18;100664.03;;;24.79;38.96
33496;BME280;19836;55.812;37.560;2022-08-24T20:19:44;100658.91;;;24.75;39.10
33496;BME280;19836;55.812;37.560;2022-08-24T20:22:10;100661.84;;;24.72;39.20
33496;BME280;19836;55.812;37.560;2022-08-24T20:24:36;100662.97;;;24.69;39.37
33496;BME280;19836;55.812;37.560;2022-08-24T20:27:01;100652.34;;;24.65;39.32
33496;BME280;19836;55.812;37.560;2022-08-24T20:29:27;100662.66;;;24.61;39.45
33496;BME280;19836;55.812;37.560;2022-08-24T20:31:53;100660.03;;;24.60;39.33
33496;BME280;19836;55.812;37.560;2022-08-24T20:34:22;100655.81;;;24.54;39.70
33496;BME280;19836;55.812;37.560;2022-08-24T20:36:49;100658.91;;;24.50;39.85
33496;BME280;19836;55.812;37.560;2022-08-24T20:39:16;100662.00;;;24.45;39.98
33496;BME280;19836;55.812;37.560;2022-08-24T20:41:43;100656.53;;;24.45;40.19
33496;BME280;19836;55.812;37.560;2022-08-24T20:44:10;100662.22;;;24.42;40.01
33496;BME280;19836;55.812;37.560;2022-08-24T20:46:37;100662.41;;;24.39;40.22
33496;BME280;19836;55.812;37.560;2022-08-24T20:49:07;100667.25;;;24.36;40.10
33496;BME280;19836;55.812;37.560;2022-08-24T20:51:34;100660.91;;;24.35;40.18
33496;BME280;19836;55.812;37.560;2022-08-24T20:54:00;100661.13;;;24.32;40.33
33496;BME280;19836;55.812;37.560;2022-08-24T20:56:29;100662.31;;;24.28;40.26
33496;BME280;19836;55.812;37.560;2022-08-24T20:58:55;100667.03;;;24.26;40.46
33496;BME280;19836;55.812;37.560;2022-08-24T21:01:21;100667.25;;;24.23;40.54
33496;BME280;19836;55.812;37.560;2022-08-24T21:03:47;100664.75;;;24.20;40.76
33496;BME280;19836;55.812;37.560;2022-08-24T21:06:16;100666.81;;;24.17;40.88
33496;BME280;19836;55.812;37.560;2022-08-24T21:08:45;100662.41;;;24.14;40.97
33496;BME280;19836;55.812;37.560;2022-08-24T21:11:13;100665.50;;;24.10;41.09
33496;BME280;19836;55.812;37.560;2022-08-24T21:13:39;100668.56;;;24.05;41.15
33496;BME280;19836;55.812;37.560;2022-08-24T21:16:06;100667.03;;;24.01;41.45
33496;BME280;19836;55.812;37.560;2022-08-24T21:18:33;100662.75;;;23.97;41.29
33496;BME280;19836;55.812;37.560;2022-08-24T21:20:59;100665.59;;;23.96;41.53
33496;BME280;19836;55.812;37.560;2022-08-24T21:23:25;100663.94;;;23.93;41.58
33496;BME280;19836;55.812;37.560;2022-08-24T21:25:51;100670.41;;;23.92;41.69
33496;BME280;19836;55.812;37.560;2022-08-24T21:28:19;100673.44;;;23.88;42.04
33496;BME280;19836;55.812;37.560;2022-08-24T21:30:46;100661.81;;;23.84;42.05
33496;BME280;19836;55.812;37.560;2022-08-24T21:33:13;100671.78;;;23.85;42.28
33496;BME280;19836;55.812;37.560;2022-08-24T21:35:57;100671.00;;;23.83;42.18
33496;BME280;19836;55.812;37.560;2022-08-24T21:38:24;100667.50;;;23.81;42.44
33496;BME280;19836;55.812;37.560;2022-08-24T21:40:50;100670.44;;;23.78;42.51
33496;BME280;19836;55.812;37.560;2022-08-24T21:43:17;100668.91;;;23.74;42.67
33496;BME280;19836;55.812;37.560;2022-08-24T21:45:47;100677.25;;;23.73;42.76
33496;BME280;19836;55.812;37.560;2022-08-24T21:48:17;100673.72;;;23.71;42.84
33496;BME280;19836;55.812;37.560;2022-08-24T21:50:44;100666.59;;;23.68;43.13
33496;BME280;19836;55.812;37.560;2022-08-24T21:53:10;100669.56;;;23.65;43.13
33496;BME280;19836;55.812;37.560;2022-08-24T21:55:36;100672.41;;;23.64;43.13
33496;BME280;19836;55.812;37.560;2022-08-24T21:58:05;100675.22;;;23.62;43.39
33496;BME280;19836;55.812;37.560;2022-08-24T22:00:30;100676.22;;;23.61;43.07
33496;BME280;19836;55.812;37.560;2022-08-24T22:02:57;100665.38;;;23.60;43.42
33496;BME280;19836;55.812;37.560;2022-08-24T22:05:24;100673.91;;;23.55;43.43
33496;BME280;19836;55.812;37.560;2022-08-24T22:07:49;100676.75;;;23.54;43.64
33496;BME280;19836;55.812;37.560;2022-08-24T22:10:15;100666.66;;;23.54;43.32
33496;BME280;19836;55.812;37.560;2022-08-24T22:12:41;100673.13;;;23.53;43.84
33496;BME280;19836;55.812;37.560;2022-08-24T22:15:10;100670.63;;;23.50;43.89
33496;BME280;19836;55.812;37.560;2022-08-24T22:17:37;100670.81;;;23.47;43.97
33496;BME280;19836;55.812;37.560;2022-08-24T22:20:05;100663.50;;;23.48;44.00
33496;BME280;19836;55.812;37.560;2022-08-24T22:22:31;100669.91;;;23.47;44.04
33496;BME280;19836;55.812;37.560;2022-08-24T22:24:57;100653.84;;;23.42;44.03
33496;BME280;19836;55.812;37.560;2022-08-24T22:27:23;100653.16;;;23.39;44.21
33496;BME280;19836;55.812;37.560;2022-08-24T22:29:48;100652.28;;;23.38;44.26
33496;BME280;19836;55.812;37.560;2022-08-24T22:32:14;100663.53;;;23.34;44.23
33496;BME280;19836;55.812;37.560;2022-08-24T22:34:40;100662.00;;;23.30;44.47
33496;BME280;19836;55.812;37.560;2022-08-24T22:37:06;100664.81;;;23.28;44.58
33496;BME280;19836;55.812;37.560;2022-08-24T22:39:32;100670.28;;;23.28;44.78
33496;BME280;19836;55.812;37.560;2022-08-24T22:41:58;100668.53;;;23.27;44.61
33496;BME280;19836;55.812;37.560;2022-08-24T22:44:24;100657.69;;;23.26;44.79
33496;BME280;19836;55.812;37.560;2022-08-24T22:46:55;100665.44;;;23.19;45.06
33496;BME280;19836;55.812;37.560;2022-08-24T22:49:27;100659.97;;;23.19;45.06
33496;BME280;19836;55.812;37.560;2022-08-24T22:51:53;100659.97;;;23.19;45.12
33496;BME280;19836;55.812;37.560;2022-08-24T22:54:20;100660.16;;;23.16;45.18
33496;BME280;19836;55.812;37.560;2022-08-24T22:56:48;100664.84;;;23.14;45.46
33496;BME280;19836;55.812;37.560;2022-08-24T22:59:21;100664.25;;;23.09;45.43
33496;BME280;19836;55.812;37.560;2022-08-24T23:01:49;100661.66;;;23.08;45.68
33496;BME280;19836;55.812;37.560;2022-08-24T23:04:18;100662.75;;;23.05;45.75
33496;BME280;19836;55.812;37.560;2022-08-24T23:06:45;100657.47;;;23.02;45.89
33496;BME280;19836;55.812;37.560;2022-08-24T23:09:11;100657.56;;;23.01;45.91